Time;durP1;ratioP1;P1;durP2;ratioP2;P2;SDS_P1;SDS_P2;PMS_P1;PMS_P2;Temp;Humidity;BMP_temperature;BMP_pressure;BME280_temperature;BME280_humidity;BME280_pressure;Samples;Min_cycle;Max_cycle;Signal;HPM_P1;HPM_P2
2022/03/09 07:03:34;;;;;;;39.67;17.95;;;;;;;;;;6236882;22;20030;-94
2022/03/09 10:23:11;;;;;;;30.33;19.83;;;;;;;;;;6201569;23;20443;-94
2022/03/09 10:25:38;;;;;;;36.17;20.73;;;;;;;;;;6191779;23;20316;-92
2022/03/09 10:28:13;;;;;;;32.22;20.25;;;;;;;;;;6192335;23;20004;-94
2022/03/09 10:30:41;;;;;;;34.80;22.20;;;;;;;;;;6219180;23;20005;-93
2022/03/09 10:33:10;;;;;;;29.65;19.98;;;;;;;;;;6225644;23;20012;-93
2022/03/09 10:35:49;;;;;;;35.10;20.83;;;;;;;;;;6224438;23;20076;-92
2022/03/09 10:38:14;;;;;;;34.40;21.60;;;;;;;;;;6220799;23;20057;-94
2022/03/09 10:40:52;;;;;;;32.67;21.35;;;;;;;;;;6218053;23;20123;-93
2022/03/09 10:43:24;;;;;;;33.15;21.38;;;;;;;;;;6220130;23;20013;-91
2022/03/09 10:46:00;;;;;;;30.33;20.17;;;;;;;;;;6217259;23;20020;-95
2022/03/09 10:48:27;;;;;;;33.70;20.77;;;;;;;;;;6219570;23;20008;-91
2022/03/09 10:50:54;;;;;;;35.72;22.23;;;;;;;;;;6217365;23;20005;-88
2022/03/09 10:53:19;;;;;;;34.72;21.42;;;;;;;;;;6217020;23;20004;-88
2022/03/09 10:55:44;;;;;;;30.77;19.95;;;;;;;;;;6217287;23;20013;-90
2022/03/09 10:58:22;;;;;;;33.00;20.83;;;;;;;;;;6218535;23;20416;-91
2022/03/09 11:00:50;;;;;;;34.78;20.83;;;;;;;;;;6220463;23;20005;-93
2022/03/09 11:03:18;;;;;;;36.38;21.48;;;;;;;;;;6217476;23;20015;-93
2022/03/09 11:05:52;;;;;;;31.67;21.50;;;;;;;;;;6216696;23;20009;-92
2022/03/09 11:08:20;;;;;;;33.08;21.35;;;;;;;;;;6218250;23;20400;-94
2022/03/09 11:10:46;;;;;;;35.00;21.00;;;;;;;;;;6217272;23;20005;-91
2022/03/09 11:13:13;;;;;;;34.85;20.92;;;;;;;;;;6217722;23;20083;-92
2022/03/09 11:15:44;;;;;;;34.42;20.52;;;;;;;;;;6217310;23;20086;-95
2022/03/09 11:18:17;;;;;;;31.92;20.58;;;;;;;;;;6217151;23;20083;-92
2022/03/09 11:20:43;;;;;;;31.42;19.45;;;;;;;;;;6218337;23;20001;-94
2022/03/09 11:23:11;;;;;;;31.45;20.30;;;;;;;;;;6243961;23;20090;-94
2022/03/09 11:25:38;;;;;;;31.42;19.80;;;;;;;;;;6248033;23;20008;-95
2022/03/09 11:28:05;;;;;;;29.42;18.92;;;;;;;;;;6247659;23;20042;-94
2022/03/09 11:30:33;;;;;;;30.25;19.55;;;;;;;;;;6247848;23;20015;-90
2022/03/09 11:33:01;;;;;;;34.65;22.10;;;;;;;;;;6247425;23;20004;-91
2022/03/09 11:35:34;;;;;;;32.15;22.00;;;;;;;;;;6246803;23;20019;-91
2022/03/09 11:38:01;;;;;;;31.70;19.75;;;;;;;;;;6247327;23;20008;-91
2022/03/09 11:40:27;;;;;;;30.63;19.30;;;;;;;;;;6248818;23;20038;-91
2022/03/09 11:42:52;;;;;;;28.83;19.25;;;;;;;;;;6248386;23;20008;-91
2022/03/09 11:45:20;;;;;;;31.33;19.85;;;;;;;;;;6248116;23;20145;-91
2022/03/09 11:48:04;;;;;;;30.15;19.20;;;;;;;;;;6248770;23;20018;-89
2022/03/09 11:50:34;;;;;;;29.98;19.90;;;;;;;;;;6249143;23;20091;-94
2022/03/09 11:53:05;;;;;;;30.75;19.67;;;;;;;;;;6251464;23;20011;-94
2022/03/09 11:55:31;;;;;;;32.15;20.23;;;;;;;;;;6251884;23;20415;-94
2022/03/09 11:58:09;;;;;;;31.05;20.48;;;;;;;;;;6252807;23;20000;-96
2022/03/09 12:00:38;;;;;;;31.73;19.80;;;;;;;;;;6249587;23;20008;-93
2022/03/09 12:03:04;;;;;;;28.65;19.67;;;;;;;;;;6249206;23;20031;-95
2022/03/09 12:05:36;;;;;;;29.23;20.45;;;;;;;;;;6248317;23;20011;-95
2022/03/09 12:08:25;;;;;;;34.20;21.45;;;;;;;;;;6249086;23;20070;-95
2022/03/09 12:10:57;;;;;;;32.15;21.73;;;;;;;;;;6245365;23;20000;-94
2022/03/09 12:13:46;;;;;;;32.92;20.55;;;;;;;;;;6249258;23;20036;-95
2022/03/09 12:16:14;;;;;;;;;;;;;;;;;;6250057;23;20008;-95
2022/03/09 12:18:46;;;;;;;32.45;21.23;;;;;;;;;;6248715;23;19931;-95
2022/03/09 12:21:15;;;;;;;31.23;21.38;;;;;;;;;;6248165;23;20007;-93
2022/03/09 12:24:02;;;;;;;39.63;20.92;;;;;;;;;;6247971;23;20447;-94
2022/03/09 12:26:47;;;;;;;31.20;22.83;;;;;;;;;;6248150;23;20040;-93
2022/03/09 12:29:20;;;;;;;30.70;21.17;;;;;;;;;;6247828;23;20011;-94
2022/03/09 12:31:46;;;;;;;32.78;22.40;;;;;;;;;;6248388;23;20011;-92
2022/03/09 12:34:23;;;;;;;39.08;23.10;;;;;;;;;;6249808;23;20004;-93
2022/03/09 12:36:49;;;;;;;36.58;24.40;;;;;;;;;;6248370;23;20016;-94
2022/03/09 12:39:15;;;;;;;34.53;24.05;;;;;;;;;;6247292;23;20378;-93
2022/03/09 12:41:44;;;;;;;36.15;26.10;;;;;;;;;;6247597;23;20004;-95
2022/03/09 12:44:12;;;;;;;36.70;25.05;;;;;;;;;;6247404;23;20015;-93
2022/03/09 16:59:54;;;;;;;34.55;19.13;;;;;;;;;;6245667;22;20031;-94
2022/03/09 17:02:19;;;;;;;34.88;19.10;;;;;;;;;;6222408;23;20016;-93
2022/03/09 17:04:45;;;;;;;35.28;18.50;;;;;;;;;;6221729;23;20014;-95
2022/03/09 17:07:10;;;;;;;35.45;18.90;;;;;;;;;;6248690;23;20004;-95
2022/03/09 17:09:36;;;;;;;35.42;17.90;;;;;;;;;;6222186;23;20099;-96
2022/03/09 17:12:01;;;;;;;32.03;18.52;;;;;;;;;;6222284;23;20014;-94
2022/03/09 17:14:27;;;;;;;34.45;19.17;;;;;;;;;;6221602;23;20004;-93
2022/03/09 17:16:53;;;;;;;35.85;19.63;;;;;;;;;;6220707;23;20419;-93
2022/03/09 17:19:19;;;;;;;35.65;18.40;;;;;;;;;;6221810;23;20058;-94
2022/03/09 17:21:45;;;;;;;33.38;18.42;;;;;;;;;;6221528;23;19996;-94
2022/03/09 17:24:12;;;;;;;32.45;17.95;;;;;;;;;;6221907;23;20639;-94
2022/03/09 17:26:38;;;;;;;31.17;17.92;;;;;;;;;;6221776;23;20463;-94
2022/03/09 17:29:04;;;;;;;32.10;18.10;;;;;;;;;;6221863;23;20000;-92
2022/03/09 17:31:30;;;;;;;31.13;18.10;;;;;;;;;;6221836;23;19996;-93
2022/03/09 17:33:55;;;;;;;32.28;17.45;;;;;;;;;;6221590;23;20000;-93
2022/03/09 17:36:21;;;;;;;36.42;19.25;;;;;;;;;;6221486;23;20042;-95
2022/03/09 17:38:46;;;;;;;33.20;18.10;;;;;;;;;;6222508;23;20050;-92
2022/03/09 17:41:12;;;;;;;34.85;17.85;;;;;;;;;;6221968;23;20004;-94
2022/03/09 17:43:39;;;;;;;32.35;18.48;;;;;;;;;;6222611;23;20016;-93
2022/03/09 17:46:05;;;;;;;40.25;19.67;;;;;;;;;;6221795;23;20087;-92
2022/03/09 17:48:30;;;;;;;31.30;17.15;;;;;;;;;;6221436;23;20530;-95
2022/03/09 17:50:56;;;;;;;39.58;18.75;;;;;;;;;;6220770;23;20075;-88
2022/03/09 17:53:22;;;;;;;35.95;17.75;;;;;;;;;;6219632;23;20331;-89
2022/03/09 17:55:48;;;;;;;31.88;18.08;;;;;;;;;;6219928;23;20058;-88
2022/03/09 17:58:15;;;;;;;31.42;17.38;;;;;;;;;;6220033;23;20031;-89
2022/03/09 18:00:41;;;;;;;35.83;18.92;;;;;;;;;;6203033;23;20015;-88
2022/03/09 18:03:07;;;;;;;32.08;17.30;;;;;;;;;;6216393;23;20347;-87
2022/03/09 18:05:33;;;;;;;34.13;17.15;;;;;;;;;;6190029;23;20008;-89
2022/03/09 18:07:58;;;;;;;31.05;16.90;;;;;;;;;;6216400;23;20008;-89
2022/03/09 18:10:24;;;;;;;31.67;17.13;;;;;;;;;;6190515;23;20008;-87
2022/03/09 18:12:49;;;;;;;32.13;17.40;;;;;;;;;;6189790;23;20428;-88
2022/03/09 18:15:15;;;;;;;31.90;17.90;;;;;;;;;;6189957;23;20016;-89
2022/03/09 18:17:41;;;;;;;37.17;19.92;;;;;;;;;;6190033;23;20001;-89
2022/03/09 18:20:07;;;;;;;34.28;17.55;;;;;;;;;;6189694;23;20015;-89
2022/03/09 18:22:32;;;;;;;33.95;18.23;;;;;;;;;;6189772;23;20005;-89
2022/03/09 18:24:58;;;;;;;33.83;19.17;;;;;;;;;;6189861;23;20012;-88
2022/03/09 18:27:24;;;;;;;35.72;18.67;;;;;;;;;;6216141;23;20301;-89
2022/03/09 18:29:49;;;;;;;38.08;19.67;;;;;;;;;;6189520;23;20332;-89
2022/03/09 18:32:15;;;;;;;355.75;226.35;;;;;;;;;;6189673;23;20000;-88
2022/03/09 18:34:40;;;;;;;42.85;23.48;;;;;;;;;;6216475;23;20008;-88
2022/03/09 18:37:06;;;;;;;72.15;34.75;;;;;;;;;;6189453;23;20009;-88
2022/03/09 18:39:32;;;;;;;43.65;24.65;;;;;;;;;;6189526;23;20004;-90
2022/03/09 18:41:58;;;;;;;47.08;25.80;;;;;;;;;;6190170;23;20084;-90
2022/03/09 18:44:24;;;;;;;41.65;24.75;;;;;;;;;;6189803;23;20032;-90
2022/03/09 18:46:49;;;;;;;40.22;23.77;;;;;;;;;;6216845;23;20012;-91
2022/03/09 18:49:15;;;;;;;157.25;102.82;;;;;;;;;;6193428;23;20320;-91
2022/03/09 18:51:41;;;;;;;56.17;34.38;;;;;;;;;;6193970;23;20004;-91
2022/03/09 18:54:08;;;;;;;72.65;47.15;;;;;;;;;;6193532;23;20008;-89
2022/03/09 18:56:33;;;;;;;33.40;18.45;;;;;;;;;;6221659;23;20324;-89
2022/03/09 18:58:59;;;;;;;37.08;22.38;;;;;;;;;;6193045;23;20412;-89
2022/03/09 19:01:25;;;;;;;43.05;23.85;;;;;;;;;;6194241;23;20100;-90
2022/03/09 19:03:51;;;;;;;36.25;19.80;;;;;;;;;;6194233;23;20012;-91
2022/03/09 19:06:16;;;;;;;34.90;18.75;;;;;;;;;;6194625;23;20081;-91
2022/03/09 19:08:42;;;;;;;35.97;18.45;;;;;;;;;;6196679;23;20510;-89
2022/03/09 19:11:09;;;;;;;31.92;18.48;;;;;;;;;;6222758;23;20071;-86
2022/03/09 19:13:34;;;;;;;33.58;18.98;;;;;;;;;;6171521;23;20009;-90
2022/03/09 19:16:00;;;;;;;35.03;19.23;;;;;;;;;;6194866;23;20043;-92
2022/03/09 19:18:25;;;;;;;35.90;19.85;;;;;;;;;;6193798;23;20095;-89
2022/03/09 19:20:51;;;;;;;33.80;19.92;;;;;;;;;;6194246;23;20103;-91
2022/03/09 19:23:17;;;;;;;74.22;54.28;;;;;;;;;;6195010;23;20391;-89
2022/03/09 19:25:43;;;;;;;42.22;26.25;;;;;;;;;;6194946;23;20059;-90
2022/03/09 19:28:09;;;;;;;42.92;20.55;;;;;;;;;;6198680;23;20001;-90
2022/03/09 19:30:37;;;;;;;37.58;19.90;;;;;;;;;;6197545;23;20100;-93
2022/03/09 19:33:06;;;;;;;33.13;18.05;;;;;;;;;;6195622;23;20091;-92
2022/03/09 19:35:31;;;;;;;34.05;16.58;;;;;;;;;;6200276;23;20039;-92
2022/03/09 19:37:57;;;;;;;34.17;17.15;;;;;;;;;;6172319;23;20067;-92
2022/03/09 19:40:22;;;;;;;38.75;21.27;;;;;;;;;;6220058;23;20059;-91
2022/03/09 19:42:48;;;;;;;34.22;18.27;;;;;;;;;;6220960;23;20004;-91
2022/03/09 19:45:13;;;;;;;34.92;18.30;;;;;;;;;;6194949;23;20091;-91
2022/03/09 19:47:39;;;;;;;36.72;20.08;;;;;;;;;;6198262;23;20020;-91
2022/03/09 19:50:06;;;;;;;40.30;20.55;;;;;;;;;;6195654;23;20005;-92
2022/03/09 19:52:33;;;;;;;32.03;17.20;;;;;;;;;;6222811;23;20448;-92
2022/03/09 19:54:59;;;;;;;32.20;17.38;;;;;;;;;;6194377;23;20005;-92
2022/03/09 19:57:24;;;;;;;34.22;17.25;;;;;;;;;;6194518;23;20000;-92
2022/03/09 19:59:51;;;;;;;29.75;16.02;;;;;;;;;;6195041;23;20017;-91
2022/03/09 20:02:18;;;;;;;32.00;16.45;;;;;;;;;;6200318;23;20008;-88
2022/03/09 20:04:43;;;;;;;35.65;18.73;;;;;;;;;;6203286;23;20011;-93
2022/03/09 20:07:12;;;;;;;40.70;21.27;;;;;;;;;;6195814;23;20005;-89
2022/03/09 20:09:37;;;;;;;39.70;20.27;;;;;;;;;;6192779;23;20412;-92
2022/03/09 20:12:04;;;;;;;32.05;16.73;;;;;;;;;;6192002;23;20004;-92
2022/03/09 20:14:29;;;;;;;37.08;19.85;;;;;;;;;;6194810;23;20008;-90
2022/03/09 20:16:55;;;;;;;33.78;17.35;;;;;;;;;;6192648;23;20327;-89
2022/03/09 20:19:20;;;;;;;34.30;17.92;;;;;;;;;;6194805;23;20028;-94
2022/03/09 20:21:46;;;;;;;40.80;22.55;;;;;;;;;;6193730;23;20439;-95
2022/03/09 20:24:11;;;;;;;38.95;19.75;;;;;;;;;;6219479;23;20060;-94
2022/03/09 20:26:37;;;;;;;32.50;15.90;;;;;;;;;;6192983;23;20009;-89
2022/03/09 20:29:04;;;;;;;33.83;16.83;;;;;;;;;;6219784;23;20007;-93
2022/03/09 20:31:30;;;;;;;33.03;17.33;;;;;;;;;;6192444;23;20024;-91
2022/03/09 20:33:55;;;;;;;32.47;17.77;;;;;;;;;;6195596;23;20446;-94
2022/03/09 20:36:21;;;;;;;34.40;16.17;;;;;;;;;;6192029;23;20009;-94
2022/03/09 20:38:51;;;;;;;31.90;17.13;;;;;;;;;;6191999;23;20056;-93
2022/03/09 20:41:16;;;;;;;;;;;;;;;;;;6192401;23;20001;-91
2022/03/09 20:43:45;;;;;;;33.25;16.88;;;;;;;;;;6192995;23;19930;-92
2022/03/09 20:46:11;;;;;;;38.05;19.63;;;;;;;;;;6194369;23;20016;-88
2022/03/09 20:48:37;;;;;;;34.58;17.30;;;;;;;;;;6219396;23;19997;-89
2022/03/09 20:51:03;;;;;;;31.15;16.55;;;;;;;;;;6218804;23;20012;-93
2022/03/09 20:53:29;;;;;;;33.47;17.75;;;;;;;;;;6192264;23;20328;-89
2022/03/09 20:55:55;;;;;;;31.35;16.45;;;;;;;;;;6168845;23;20017;-94
2022/03/09 20:58:20;;;;;;;36.00;18.30;;;;;;;;;;6192094;23;20027;-92
2022/03/09 21:00:46;;;;;;;34.65;16.75;;;;;;;;;;6218326;23;20047;-94
2022/03/09 21:03:11;;;;;;;34.65;16.80;;;;;;;;;;6191598;23;20023;-93
2022/03/09 21:05:41;;;;;;;34.78;16.60;;;;;;;;;;6191774;23;20036;-94
2022/03/09 21:08:06;;;;;;;34.83;17.08;;;;;;;;;;6191879;23;20005;-91
2022/03/09 21:10:32;;;;;;;31.33;16.63;;;;;;;;;;6191927;23;20036;-95
2022/03/09 21:12:57;;;;;;;43.95;21.65;;;;;;;;;;6193520;23;20036;-93
2022/03/09 21:15:23;;;;;;;56.47;24.80;;;;;;;;;;6193089;23;20036;-92
2022/03/09 21:17:48;;;;;;;36.40;18.15;;;;;;;;;;6195342;23;20015;-92
2022/03/09 21:20:14;;;;;;;30.67;16.65;;;;;;;;;;6203542;23;20038;-94
2022/03/09 21:22:39;;;;;;;32.60;17.20;;;;;;;;;;6199052;23;20012;-96
2022/03/09 21:25:12;;;;;;;32.78;17.10;;;;;;;;;;6194702;23;20008;-94
2022/03/09 21:27:44;;;;;;;32.67;16.17;;;;;;;;;;6225047;23;20012;-90
2022/03/09 21:30:10;;;;;;;111.03;43.63;;;;;;;;;;6190749;23;20083;-91
2022/03/09 21:32:38;;;;;;;55.70;24.58;;;;;;;;;;6191366;23;20078;-93
2022/03/09 21:35:04;;;;;;;47.80;24.00;;;;;;;;;;6193181;23;20083;-93
2022/03/09 21:37:30;;;;;;;47.05;22.80;;;;;;;;;;6192726;23;20001;-92
2022/03/09 21:39:57;;;;;;;125.25;54.70;;;;;;;;;;6191299;23;20004;-92
2022/03/09 21:42:22;;;;;;;51.08;26.15;;;;;;;;;;6193301;23;20011;-90
2022/03/09 21:44:47;;;;;;;45.10;22.25;;;;;;;;;;6193037;23;20004;-95
2022/03/09 21:47:13;;;;;;;45.20;21.23;;;;;;;;;;6197895;23;20040;-91
2022/03/09 21:49:39;;;;;;;41.83;21.92;;;;;;;;;;6194271;23;20001;-93
2022/03/09 21:52:04;;;;;;;47.92;26.48;;;;;;;;;;6193849;23;20035;-95
2022/03/09 21:54:31;;;;;;;42.97;21.67;;;;;;;;;;6195298;23;20092;-93
2022/03/09 21:56:57;;;;;;;42.22;21.45;;;;;;;;;;6190726;23;20015;-93
2022/03/09 21:59:23;;;;;;;44.90;23.00;;;;;;;;;;6190664;23;20328;-93
2022/03/09 22:01:48;;;;;;;41.50;20.65;;;;;;;;;;6190707;23;20050;-92
2022/03/09 22:04:14;;;;;;;42.33;20.40;;;;;;;;;;6196461;23;20035;-93
2022/03/09 22:06:39;;;;;;;38.17;20.50;;;;;;;;;;6197868;23;20005;-91
2022/03/09 22:09:05;;;;;;;41.08;20.90;;;;;;;;;;6193361;23;20001;-95
2022/03/09 22:11:30;;;;;;;39.45;19.48;;;;;;;;;;6192102;23;20036;-94
2022/03/09 22:13:56;;;;;;;38.60;19.60;;;;;;;;;;6191833;23;20061;-93
2022/03/09 22:16:22;;;;;;;34.95;17.75;;;;;;;;;;6190896;23;20005;-94
2022/03/09 22:18:47;;;;;;;39.90;19.33;;;;;;;;;;6191621;23;20012;-94
2022/03/09 22:21:13;;;;;;;46.97;21.27;;;;;;;;;;6196246;23;20009;-94
2022/03/09 22:23:49;;;;;;;36.47;19.38;;;;;;;;;;6201098;23;20012;-93
2022/03/09 22:26:15;;;;;;;38.17;18.67;;;;;;;;;;6224094;23;20008;-94
2022/03/09 22:28:40;;;;;;;42.53;19.73;;;;;;;;;;6193994;23;20096;-94
2022/03/09 22:31:06;;;;;;;37.35;19.38;;;;;;;;;;6193187;23;20005;-91
2022/03/09 22:33:31;;;;;;;39.13;20.65;;;;;;;;;;6192758;23;20069;-94
2022/03/09 22:35:56;;;;;;;38.88;18.95;;;;;;;;;;6192214;23;20012;-93
2022/03/09 22:38:22;;;;;;;39.67;19.20;;;;;;;;;;6191450;23;20004;-92
2022/03/09 22:40:47;;;;;;;39.80;19.23;;;;;;;;;;6191908;23;20013;-91
2022/03/09 22:43:13;;;;;;;40.47;18.67;;;;;;;;;;6190785;23;20009;-95
2022/03/09 22:45:38;;;;;;;38.03;18.02;;;;;;;;;;6191755;23;20482;-94
2022/03/09 22:48:04;;;;;;;39.58;19.40;;;;;;;;;;6191688;23;20083;-92
2022/03/09 22:50:31;;;;;;;35.45;19.05;;;;;;;;;;6192394;23;20000;-94
2022/03/09 22:53:06;;;;;;;40.47;19.70;;;;;;;;;;6192044;23;20012;-92
2022/03/09 22:55:32;;;;;;;36.75;19.63;;;;;;;;;;6191915;23;20363;-91
2022/03/09 22:57:57;;;;;;;40.80;20.67;;;;;;;;;;6191022;23;20012;-94
2022/03/09 23:00:32;;;;;;;40.53;20.10;;;;;;;;;;6190594;23;20024;-94
2022/03/09 23:02:57;;;;;;;37.67;19.20;;;;;;;;;;6190811;23;20050;-93
2022/03/09 23:05:28;;;;;;;39.33;18.35;;;;;;;;;;6191041;23;20051;-92
2022/03/09 23:07:55;;;;;;;38.55;18.70;;;;;;;;;;6190463;23;20031;-94
2022/03/09 23:10:21;;;;;;;37.53;19.42;;;;;;;;;;6191043;23;20009;-94
2022/03/09 23:12:47;;;;;;;38.55;18.85;;;;;;;;;;6191190;23;20013;-95
2022/03/09 23:15:12;;;;;;;40.63;20.30;;;;;;;;;;6217728;23;20005;-94
2022/03/09 23:17:38;;;;;;;41.67;19.60;;;;;;;;;;6191028;23;20009;-91
2022/03/09 23:20:04;;;;;;;36.97;19.10;;;;;;;;;;6193746;23;20009;-93
2022/03/09 23:22:29;;;;;;;39.38;21.20;;;;;;;;;;6190569;23;20340;-95
